sensor_id;sensor_type;location;lat;lon;timestamp;P1;durP1;ratioP1;P2;durP2;ratioP2
8419;SDS011;4247;48.550;8.822;2023-04-25T00:02:23;4.03;;;1.53;;
8419;SDS011;4247;48.550;8.822;2023-04-25T00:04:50;1.63;;;1.00;;
8419;SDS011;4247;48.550;8.822;2023-04-25T00:07:19;1.13;;;1.00;;
8419;SDS011;4247;48.550;8.822;2023-04-25T00:09:45;2.67;;;0.97;;
8419;SDS011;4247;48.550;8.822;2023-04-25T00:12:12;2.97;;;1.00;;
8419;SDS011;4247;48.550;8.822;2023-04-25T00:14:39;3.47;;;1.30;;
8419;SDS011;4247;48.550;8.822;2023-04-25T00:17:05;0.90;;;0.90;;
8419;SDS011;4247;48.550;8.822;2023-04-25T00:19:32;1.00;;;0.90;;
8419;SDS011;4247;48.550;8.822;2023-04-25T00:21:59;2.03;;;0.80;;
8419;SDS011;4247;48.550;8.822;2023-04-25T00:24:28;2.93;;;0.90;;
8419;SDS011;4247;48.550;8.822;2023-04-25T00:26:55;1.17;;;1.07;;
8419;SDS011;4247;48.550;8.822;2023-04-25T00:29:21;1.00;;;1.00;;
8419;SDS011;4247;48.550;8.822;2023-04-25T00:31:48;2.93;;;0.80;;
8419;SDS011;4247;48.550;8.822;2023-04-25T00:34:15;3.13;;;0.70;;
8419;SDS011;4247;48.550;8.822;2023-04-25T00:36:41;0.83;;;0.83;;
8419;SDS011;4247;48.550;8.822;2023-04-25T00:39:08;0.70;;;0.70;;
8419;SDS011;4247;48.550;8.822;2023-04-25T00:41:36;0.80;;;0.77;;
8419;SDS011;4247;48.550;8.822;2023-04-25T00:44:03;0.90;;;0.80;;
8419;SDS011;4247;48.550;8.822;2023-04-25T00:46:31;2.67;;;1.00;;
8419;SDS011;4247;48.550;8.822;2023-04-25T00:48:58;1.53;;;0.80;;
8419;SDS011;4247;48.550;8.822;2023-04-25T00:51:25;4.87;;;1.10;;
8419;SDS011;4247;48.550;8.822;2023-04-25T00:53:52;1.07;;;0.70;;
8419;SDS011;4247;48.550;8.822;2023-04-25T00:56:19;2.43;;;0.93;;
8419;SDS011;4247;48.550;8.822;2023-04-25T00:58:48;2.43;;;1.33;;
8419;SDS011;4247;48.550;8.822;2023-04-25T01:01:17;1.83;;;0.80;;
8419;SDS011;4247;48.550;8.822;2023-04-25T01:03:44;2.03;;;1.00;;
8419;SDS011;4247;48.550;8.822;2023-04-25T01:06:12;2.10;;;0.70;;
8419;SDS011;4247;48.550;8.822;2023-04-25T01:08:39;1.00;;;0.80;;
8419;SDS011;4247;48.550;8.822;2023-04-25T01:11:06;0.90;;;0.83;;
8419;SDS011;4247;48.550;8.822;2023-04-25T01:13:33;1.00;;;0.77;;
8419;SDS011;4247;48.550;8.822;2023-04-25T01:16:02;0.93;;;0.80;;
8419;SDS011;4247;48.550;8.822;2023-04-25T01:18:29;2.00;;;0.90;;
8419;SDS011;4247;48.550;8.822;2023-04-25T01:20:56;0.70;;;0.63;;
8419;SDS011;4247;48.550;8.822;2023-04-25T01:23:32;1.70;;;0.80;;
8419;SDS011;4247;48.550;8.822;2023-04-25T01:25:59;1.17;;;0.73;;
8419;SDS011;4247;48.550;8.822;2023-04-25T01:28:27;1.40;;;0.70;;
8419;SDS011;4247;48.550;8.822;2023-04-25T01:30:54;0.70;;;0.70;;
8419;SDS011;4247;48.550;8.822;2023-04-25T01:33:22;1.00;;;0.90;;
8419;SDS011;4247;48.550;8.822;2023-04-25T01:35:48;1.87;;;0.77;;
8419;SDS011;4247;48.550;8.822;2023-04-25T01:38:17;1.50;;;0.90;;
8419;SDS011;4247;48.550;8.822;2023-04-25T01:40:44;0.77;;;0.77;;
8419;SDS011;4247;48.550;8.822;2023-04-25T01:43:12;0.73;;;0.73;;
8419;SDS011;4247;48.550;8.822;2023-04-25T01:45:39;1.70;;;0.80;;
8419;SDS011;4247;48.550;8.822;2023-04-25T01:48:06;3.70;;;1.00;;
8419;SDS011;4247;48.550;8.822;2023-04-25T01:50:33;1.93;;;0.80;;
8419;SDS011;4247;48.550;8.822;2023-04-25T01:52:59;1.00;;;0.80;;
8419;SDS011;4247;48.550;8.822;2023-04-25T01:55:28;2.77;;;0.93;;
8419;SDS011;4247;48.550;8.822;2023-04-25T01:57:55;1.70;;;0.80;;
8419;SDS011;4247;48.550;8.822;2023-04-25T02:00:22;3.17;;;0.70;;
8419;SDS011;4247;48.550;8.822;2023-04-25T02:02:49;1.57;;;0.70;;
8419;SDS011;4247;48.550;8.822;2023-04-25T02:05:18;2.53;;;1.57;;
8419;SDS011;4247;48.550;8.822;2023-04-25T02:07:45;2.37;;;1.00;;
8419;SDS011;4247;48.550;8.822;2023-04-25T02:10:12;0.70;;;0.70;;
8419;SDS011;4247;48.550;8.822;2023-04-25T02:12:40;2.30;;;0.80;;
8419;SDS011;4247;48.550;8.822;2023-04-25T02:15:06;5.50;;;1.20;;
8419;SDS011;4247;48.550;8.822;2023-04-25T02:17:34;1.40;;;0.90;;
8419;SDS011;4247;48.550;8.822;2023-04-25T02:20:00;1.33;;;0.97;;
8419;SDS011;4247;48.550;8.822;2023-04-25T02:22:27;8.97;;;1.03;;
8419;SDS011;4247;48.550;8.822;2023-04-25T02:24:55;2.27;;;1.00;;
8419;SDS011;4247;48.550;8.822;2023-04-25T02:27:22;1.47;;;0.80;;
8419;SDS011;4247;48.550;8.822;2023-04-25T02:29:50;1.00;;;0.87;;
8419;SDS011;4247;48.550;8.822;2023-04-25T02:32:16;2.47;;;1.27;;
8419;SDS011;4247;48.550;8.822;2023-04-25T02:34:43;2.80;;;1.03;;
8419;SDS011;4247;48.550;8.822;2023-04-25T02:37:10;1.50;;;1.40;;
8419;SDS011;4247;48.550;8.822;2023-04-25T02:39:37;7.83;;;0.83;;
8419;SDS011;4247;48.550;8.822;2023-04-25T02:42:03;1.57;;;0.73;;
8419;SDS011;4247;48.550;8.822;2023-04-25T02:44:30;1.33;;;0.70;;
8419;SDS011;4247;48.550;8.822;2023-04-25T02:46:58;2.37;;;1.00;;
8419;SDS011;4247;48.550;8.822;2023-04-25T02:49:25;4.00;;;1.80;;
8419;SDS011;4247;48.550;8.822;2023-04-25T02:51:51;2.37;;;2.10;;
8419;SDS011;4247;48.550;8.822;2023-04-25T02:54:18;3.53;;;1.77;;
8419;SDS011;4247;48.550;8.822;2023-04-25T02:56:45;6.47;;;1.53;;
8419;SDS011;4247;48.550;8.822;2023-04-25T02:59:11;4.00;;;1.60;;
8419;SDS011;4247;48.550;8.822;2023-04-25T03:01:38;2.20;;;1.50;;
8419;SDS011;4247;48.550;8.822;2023-04-25T03:04:06;1.07;;;1.00;;
8419;SDS011;4247;48.550;8.822;2023-04-25T03:06:33;2.23;;;1.63;;
8419;SDS011;4247;48.550;8.822;2023-04-25T03:09:00;0.97;;;0.97;;
8419;SDS011;4247;48.550;8.822;2023-04-25T03:11:26;3.00;;;1.00;;
8419;SDS011;4247;48.550;8.822;2023-04-25T03:13:53;2.00;;;1.13;;
8419;SDS011;4247;48.550;8.822;2023-04-25T03:16:20;4.67;;;1.10;;
8419;SDS011;4247;48.550;8.822;2023-04-25T03:18:47;3.80;;;1.30;;
8419;SDS011;4247;48.550;8.822;2023-04-25T03:21:16;1.33;;;1.00;;
8419;SDS011;4247;48.550;8.822;2023-04-25T03:23:43;1.83;;;1.10;;
8419;SDS011;4247;48.550;8.822;2023-04-25T03:26:09;3.43;;;1.20;;
8419;SDS011;4247;48.550;8.822;2023-04-25T03:28:36;4.40;;;1.17;;
8419;SDS011;4247;48.550;8.822;2023-04-25T03:31:04;1.50;;;1.07;;
8419;SDS011;4247;48.550;8.822;2023-04-25T03:33:31;1.40;;;1.30;;
8419;SDS011;4247;48.550;8.822;2023-04-25T03:35:58;2.33;;;1.40;;
8419;SDS011;4247;48.550;8.822;2023-04-25T03:38:26;1.13;;;1.00;;
8419;SDS011;4247;48.550;8.822;2023-04-25T03:40:53;3.70;;;1.20;;
8419;SDS011;4247;48.550;8.822;2023-04-25T03:43:21;1.50;;;1.40;;
8419;SDS011;4247;48.550;8.822;2023-04-25T03:45:48;1.33;;;1.23;;
8419;SDS011;4247;48.550;8.822;2023-04-25T03:48:14;2.47;;;1.50;;
8419;SDS011;4247;48.550;8.822;2023-04-25T03:50:41;1.40;;;1.17;;
8419;SDS011;4247;48.550;8.822;2023-04-25T03:53:08;2.70;;;2.07;;
8419;SDS011;4247;48.550;8.822;2023-04-25T03:55:36;14.57;;;7.30;;
8419;SDS011;4247;48.550;8.822;2023-04-25T03:58:03;7.93;;;4.53;;
8419;SDS011;4247;48.550;8.822;2023-04-25T04:00:30;2.37;;;2.10;;
8419;SDS011;4247;48.550;8.822;2023-04-25T04:02:56;3.73;;;1.63;;
8419;SDS011;4247;48.550;8.822;2023-04-25T04:05:23;2.53;;;2.17;;
8419;SDS011;4247;48.550;8.822;2023-04-25T04:07:50;6.87;;;1.67;;
8419;SDS011;4247;48.550;8.822;2023-04-25T04:10:16;1.30;;;1.20;;
8419;SDS011;4247;48.550;8.822;2023-04-25T04:12:44;2.13;;;1.27;;
8419;SDS011;4247;48.550;8.822;2023-04-25T04:15:11;1.07;;;1.07;;
8419;SDS011;4247;48.550;8.822;2023-04-25T04:17:38;1.37;;;1.27;;
8419;SDS011;4247;48.550;8.822;2023-04-25T04:20:05;3.57;;;1.10;;
8419;SDS011;4247;48.550;8.822;2023-04-25T04:22:33;2.30;;;1.43;;
8419;SDS011;4247;48.550;8.822;2023-04-25T04:25:01;2.73;;;1.70;;
8419;SDS011;4247;48.550;8.822;2023-04-25T04:27:30;1.40;;;1.20;;
8419;SDS011;4247;48.550;8.822;2023-04-25T04:29:59;2.17;;;1.20;;
8419;SDS011;4247;48.550;8.822;2023-04-25T04:32:28;2.37;;;1.43;;
8419;SDS011;4247;48.550;8.822;2023-04-25T04:34:55;1.80;;;1.30;;
8419;SDS011;4247;48.550;8.822;2023-04-25T04:37:22;1.70;;;1.20;;
8419;SDS011;4247;48.550;8.822;2023-04-25T04:39:49;2.47;;;1.57;;
8419;SDS011;4247;48.550;8.822;2023-04-25T04:42:16;2.40;;;1.20;;
8419;SDS011;4247;48.550;8.822;2023-04-25T04:44:43;1.80;;;1.10;;
8419;SDS011;4247;48.550;8.822;2023-04-25T04:47:11;2.00;;;1.30;;
8419;SDS011;4247;48.550;8.822;2023-04-25T04:49:39;3.17;;;1.73;;
8419;SDS011;4247;48.550;8.822;2023-04-25T04:52:05;1.67;;;1.40;;
8419;SDS011;4247;48.550;8.822;2023-04-25T04:54:32;8.33;;;1.63;;
8419;SDS011;4247;48.550;8.822;2023-04-25T04:57:00;1.83;;;1.40;;
8419;SDS011;4247;48.550;8.822;2023-04-25T04:59:27;4.23;;;1.40;;
8419;SDS011;4247;48.550;8.822;2023-04-25T05:01:53;2.67;;;1.03;;
8419;SDS011;4247;48.550;8.822;2023-04-25T05:04:21;2.67;;;1.67;;
8419;SDS011;4247;48.550;8.822;2023-04-25T05:06:48;1.07;;;0.97;;
8419;SDS011;4247;48.550;8.822;2023-04-25T05:09:15;1.33;;;1.00;;
8419;SDS011;4247;48.550;8.822;2023-04-25T05:11:41;2.40;;;0.93;;
8419;SDS011;4247;48.550;8.822;2023-04-25T05:14:08;1.07;;;0.90;;
8419;SDS011;4247;48.550;8.822;2023-04-25T05:16:35;0.90;;;0.90;;
8419;SDS011;4247;48.550;8.822;2023-04-25T05:19:01;3.90;;;0.80;;
8419;SDS011;4247;48.550;8.822;2023-04-25T05:21:29;1.60;;;0.80;;
8419;SDS011;4247;48.550;8.822;2023-04-25T05:23:56;1.10;;;1.00;;
8419;SDS011;4247;48.550;8.822;2023-04-25T05:26:23;2.10;;;0.73;;
8419;SDS011;4247;48.550;8.822;2023-04-25T05:28:50;0.70;;;0.70;;
8419;SDS011;4247;48.550;8.822;2023-04-25T05:31:16;1.43;;;0.70;;
8419;SDS011;4247;48.550;8.822;2023-04-25T05:33:43;0.70;;;0.70;;
8419;SDS011;4247;48.550;8.822;2023-04-25T05:36:10;1.53;;;0.90;;
8419;SDS011;4247;48.550;8.822;2023-04-25T05:38:38;6.33;;;1.10;;
8419;SDS011;4247;48.550;8.822;2023-04-25T05:41:05;1.30;;;0.80;;
8419;SDS011;4247;48.550;8.822;2023-04-25T05:43:32;1.33;;;1.10;;
8419;SDS011;4247;48.550;8.822;2023-04-25T05:45:59;2.43;;;0.60;;
8419;SDS011;4247;48.550;8.822;2023-04-25T05:48:25;1.50;;;0.73;;
8419;SDS011;4247;48.550;8.822;2023-04-25T05:50:52;0.60;;;0.60;;
8419;SDS011;4247;48.550;8.822;2023-04-25T05:53:19;1.80;;;0.70;;
8419;SDS011;4247;48.550;8.822;2023-04-25T05:55:48;1.93;;;0.80;;
8419;SDS011;4247;48.550;8.822;2023-04-25T05:58:14;0.50;;;0.50;;
8419;SDS011;4247;48.550;8.822;2023-04-25T06:00:41;1.43;;;0.40;;
8419;SDS011;4247;48.550;8.822;2023-04-25T06:03:08;1.73;;;0.80;;
8419;SDS011;4247;48.550;8.822;2023-04-25T06:05:35;1.20;;;0.60;;
8419;SDS011;4247;48.550;8.822;2023-04-25T06:08:02;2.83;;;1.07;;
8419;SDS011;4247;48.550;8.822;2023-04-25T06:10:29;0.40;;;0.40;;
8419;SDS011;4247;48.550;8.822;2023-04-25T06:12:57;2.83;;;0.60;;
8419;SDS011;4247;48.550;8.822;2023-04-25T06:15:23;1.43;;;0.60;;
8419;SDS011;4247;48.550;8.822;2023-04-25T06:17:50;0.47;;;0.47;;
8419;SDS011;4247;48.550;8.822;2023-04-25T06:20:17;0.83;;;0.83;;
8419;SDS011;4247;48.550;8.822;2023-04-25T06:22:47;6.60;;;0.83;;
8419;SDS011;4247;48.550;8.822;2023-04-25T06:25:14;2.30;;;0.63;;
8419;SDS011;4247;48.550;8.822;2023-04-25T06:27:41;3.80;;;0.50;;
8419;SDS011;4247;48.550;8.822;2023-04-25T06:30:10;0.60;;;0.60;;
8419;SDS011;4247;48.550;8.822;2023-04-25T06:32:37;0.77;;;0.70;;
8419;SDS011;4247;48.550;8.822;2023-04-25T06:35:04;2.40;;;1.00;;
8419;SDS011;4247;48.550;8.822;2023-04-25T06:37:31;1.70;;;0.70;;
8419;SDS011;4247;48.550;8.822;2023-04-25T06:39:58;0.80;;;0.80;;
8419;SDS011;4247;48.550;8.822;2023-04-25T06:42:25;2.13;;;0.93;;
8419;SDS011;4247;48.550;8.822;2023-04-25T06:44:52;5.83;;;0.57;;
8419;SDS011;4247;48.550;8.822;2023-04-25T06:47:20;3.43;;;0.60;;
8419;SDS011;4247;48.550;8.822;2023-04-25T06:49:46;1.80;;;0.90;;
8419;SDS011;4247;48.550;8.822;2023-04-25T06:52:13;0.60;;;0.60;;
8419;SDS011;4247;48.550;8.822;2023-04-25T06:54:40;2.10;;;0.60;;
8419;SDS011;4247;48.550;8.822;2023-04-25T06:57:06;2.30;;;0.70;;
8419;SDS011;4247;48.550;8.822;2023-04-25T06:59:33;0.80;;;0.70;;
8419;SDS011;4247;48.550;8.822;2023-04-25T07:02:00;1.53;;;0.70;;
8419;SDS011;4247;48.550;8.822;2023-04-25T07:04:28;0.97;;;0.57;;
8419;SDS011;4247;48.550;8.822;2023-04-25T07:06:55;2.27;;;0.77;;
8419;SDS011;4247;48.550;8.822;2023-04-25T07:09:22;5.27;;;0.90;;
8419;SDS011;4247;48.550;8.822;2023-04-25T07:11:48;1.87;;;0.93;;
8419;SDS011;4247;48.550;8.822;2023-04-25T07:14:15;2.00;;;1.30;;
8419;SDS011;4247;48.550;8.822;2023-04-25T07:16:42;1.00;;;0.80;;
8419;SDS011;4247;48.550;8.822;2023-04-25T07:19:08;3.60;;;1.27;;
8419;SDS011;4247;48.550;8.822;2023-04-25T07:21:36;2.47;;;1.00;;
8419;SDS011;4247;48.550;8.822;2023-04-25T07:24:03;2.10;;;0.80;;
8419;SDS011;4247;48.550;8.822;2023-04-25T07:26:31;2.80;;;0.87;;
8419;SDS011;4247;48.550;8.822;2023-04-25T07:28:58;1.07;;;0.70;;
8419;SDS011;4247;48.550;8.822;2023-04-25T07:31:25;3.13;;;0.97;;
8419;SDS011;4247;48.550;8.822;2023-04-25T07:33:51;2.37;;;1.20;;
8419;SDS011;4247;48.550;8.822;2023-04-25T07:36:18;0.87;;;0.87;;
8419;SDS011;4247;48.550;8.822;2023-04-25T07:38:47;2.67;;;1.60;;
8419;SDS011;4247;48.550;8.822;2023-04-25T07:41:13;3.57;;;1.30;;
8419;SDS011;4247;48.550;8.822;2023-04-25T07:43:40;1.57;;;1.03;;
8419;SDS011;4247;48.550;8.822;2023-04-25T07:46:07;3.83;;;1.50;;
8419;SDS011;4247;48.550;8.822;2023-04-25T07:48:34;1.23;;;1.13;;
8419;SDS011;4247;48.550;8.822;2023-04-25T07:51:00;1.70;;;1.60;;
8419;SDS011;4247;48.550;8.822;2023-04-25T07:53:29;1.53;;;1.10;;
8419;SDS011;4247;48.550;8.822;2023-04-25T07:55:58;7.07;;;2.67;;
8419;SDS011;4247;48.550;8.822;2023-04-25T07:58:25;1.60;;;1.50;;
8419;SDS011;4247;48.550;8.822;2023-04-25T08:00:52;3.43;;;1.67;;
8419;SDS011;4247;48.550;8.822;2023-04-25T08:03:18;1.63;;;1.30;;
8419;SDS011;4247;48.550;8.822;2023-04-25T08:05:46;1.53;;;1.40;;
8419;SDS011;4247;48.550;8.822;2023-04-25T08:08:12;2.83;;;1.17;;
8419;SDS011;4247;48.550;8.822;2023-04-25T08:10:39;1.67;;;1.57;;
8419;SDS011;4247;48.550;8.822;2023-04-25T08:13:08;2.77;;;2.17;;
8419;SDS011;4247;48.550;8.822;2023-04-25T08:15:34;2.47;;;2.27;;
8419;SDS011;4247;48.550;8.822;2023-04-25T08:18:01;2.67;;;1.90;;
8419;SDS011;4247;48.550;8.822;2023-04-25T08:20:28;1.87;;;1.77;;
8419;SDS011;4247;48.550;8.822;2023-04-25T08:22:55;2.00;;;1.57;;
8419;SDS011;4247;48.550;8.822;2023-04-25T08:25:22;1.93;;;1.70;;
8419;SDS011;4247;48.550;8.822;2023-04-25T08:27:48;1.30;;;1.20;;
8419;SDS011;4247;48.550;8.822;2023-04-25T08:30:17;1.93;;;1.20;;
8419;SDS011;4247;48.550;8.822;2023-04-25T08:32:44;1.20;;;1.10;;
8419;SDS011;4247;48.550;8.822;2023-04-25T08:35:10;1.40;;;1.30;;
8419;SDS011;4247;48.550;8.822;2023-04-25T08:37:37;1.30;;;0.90;;
8419;SDS011;4247;48.550;8.822;2023-04-25T08:40:04;5.07;;;1.30;;
8419;SDS011;4247;48.550;8.822;2023-04-25T08:42:34;0.87;;;0.87;;
8419;SDS011;4247;48.550;8.822;2023-04-25T08:45:03;1.00;;;0.90;;
8419;SDS011;4247;48.550;8.822;2023-04-25T08:47:32;0.90;;;0.70;;
8419;SDS011;4247;48.550;8.822;2023-04-25T08:50:00;1.07;;;1.07;;
8419;SDS011;4247;48.550;8.822;2023-04-25T08:52:30;1.03;;;0.93;;
8419;SDS011;4247;48.550;8.822;2023-04-25T08:55:02;1.17;;;0.90;;
8419;SDS011;4247;48.550;8.822;2023-04-25T08:57:29;0.87;;;0.70;;
8419;SDS011;4247;48.550;8.822;2023-04-25T08:59:57;1.00;;;0.90;;
8419;SDS011;4247;48.550;8.822;2023-04-25T09:02:24;1.03;;;0.63;;
8419;SDS011;4247;48.550;8.822;2023-04-25T09:04:52;2.27;;;0.80;;
8419;SDS011;4247;48.550;8.822;2023-04-25T09:07:21;0.80;;;0.80;;
8419;SDS011;4247;48.550;8.822;2023-04-25T09:09:47;1.00;;;0.40;;
8419;SDS011;4247;48.550;8.822;2023-04-25T09:12:14;0.60;;;0.60;;
8419;SDS011;4247;48.550;8.822;2023-04-25T09:14:42;0.53;;;0.50;;
8419;SDS011;4247;48.550;8.822;2023-04-25T09:17:08;0.37;;;0.37;;
8419;SDS011;4247;48.550;8.822;2023-04-25T09:19:35;0.40;;;0.40;;
8419;SDS011;4247;48.550;8.822;2023-04-25T09:22:06;3.00;;;0.60;;
8419;SDS011;4247;48.550;8.822;2023-04-25T09:24:33;0.83;;;0.50;;
8419;SDS011;4247;48.550;8.822;2023-04-25T09:27:05;0.30;;;0.30;;
8419;SDS011;4247;48.550;8.822;2023-04-25T09:29:33;0.73;;;0.50;;
8419;SDS011;4247;48.550;8.822;2023-04-25T09:32:14;1.13;;;0.60;;
8419;SDS011;4247;48.550;8.822;2023-04-25T09:34:43;0.40;;;0.40;;
8419;SDS011;4247;48.550;8.822;2023-04-25T09:37:16;0.63;;;0.30;;
8419;SDS011;4247;48.550;8.822;2023-04-25T09:39:45;0.30;;;0.30;;
8419;SDS011;4247;48.550;8.822;2023-04-25T09:42:12;0.10;;;0.10;;
8419;SDS011;4247;48.550;8.822;2023-04-25T09:44:43;0.10;;;0.10;;
8419;SDS011;4247;48.550;8.822;2023-04-25T09:47:11;0.30;;;0.30;;
8419;SDS011;4247;48.550;8.822;2023-04-25T09:49:39;0.30;;;0.30;;
8419;SDS011;4247;48.550;8.822;2023-04-25T09:52:08;0.10;;;0.10;;
8419;SDS011;4247;48.550;8.822;2023-04-25T09:54:36;0.20;;;0.20;;
8419;SDS011;4247;48.550;8.822;2023-04-25T09:57:09;0.40;;;0.30;;
8419;SDS011;4247;48.550;8.822;2023-04-25T09:59:38;0.30;;;0.20;;
8419;SDS011;4247;48.550;8.822;2023-04-25T10:02:06;1.00;;;0.40;;
8419;SDS011;4247;48.550;8.822;2023-04-25T10:04:34;0.50;;;0.50;;
8419;SDS011;4247;48.550;8.822;2023-04-25T10:07:03;0.40;;;0.40;;
8419;SDS011;4247;48.550;8.822;2023-04-25T10:09:32;0.50;;;0.30;;
8419;SDS011;4247;48.550;8.822;2023-04-25T10:12:04;0.87;;;0.20;;
8419;SDS011;4247;48.550;8.822;2023-04-25T10:14:31;0.70;;;0.30;;
8419;SDS011;4247;48.550;8.822;2023-04-25T10:16:58;0.20;;;0.10;;
8419;SDS011;4247;48.550;8.822;2023-04-25T10:19:26;0.03;;;0.03;;
8419;SDS011;4247;48.550;8.822;2023-04-25T10:21:56;1.30;;;0.23;;
8419;SDS011;4247;48.550;8.822;2023-04-25T10:24:29;0.33;;;0.33;;
8419;SDS011;4247;48.550;8.822;2023-04-25T10:26:56;0.30;;;0.30;;
8419;SDS011;4247;48.550;8.822;2023-04-25T10:29:25;1.47;;;0.63;;
8419;SDS011;4247;48.550;8.822;2023-04-25T10:31:52;0.40;;;0.40;;
8419;SDS011;4247;48.550;8.822;2023-04-25T10:34:19;0.40;;;0.40;;
8419;SDS011;4247;48.550;8.822;2023-04-25T10:36:51;0.30;;;0.30;;
8419;SDS011;4247;48.550;8.822;2023-04-25T10:39:22;0.27;;;0.27;;
8419;SDS011;4247;48.550;8.822;2023-04-25T10:41:55;0.30;;;0.20;;
8419;SDS011;4247;48.550;8.822;2023-04-25T10:44:23;0.20;;;0.20;;
8419;SDS011;4247;48.550;8.822;2023-04-25T10:46:54;0.20;;;0.20;;
8419;SDS011;4247;48.550;8.822;2023-04-25T10:49:29;0.60;;;0.20;;
8419;SDS011;4247;48.550;8.822;2023-04-25T10:54:55;0.10;;;0.10;;
8419;SDS011;4247;48.550;8.822;2023-04-25T10:57:29;0.10;;;0.10;;
8419;SDS011;4247;48.550;8.822;2023-04-25T11:00:09;0.10;;;0.10;;
8419;SDS011;4247;48.550;8.822;2023-04-25T11:02:41;0.10;;;0.10;;
8419;SDS011;4247;48.550;8.822;2023-04-25T11:05:10;0.30;;;0.20;;
8419;SDS011;4247;48.550;8.822;2023-04-25T11:07:44;0.10;;;0.10;;
8419;SDS011;4247;48.550;8.822;2023-04-25T11:10:16;0.00;;;0.00;;
8419;SDS011;4247;48.550;8.822;2023-04-25T11:12:44;0.10;;;0.10;;
8419;SDS011;4247;48.550;8.822;2023-04-25T11:15:12;0.10;;;0.10;;
8419;SDS011;4247;48.550;8.822;2023-04-25T11:17:39;0.10;;;0.10;;
8419;SDS011;4247;48.550;8.822;2023-04-25T11:20:06;2.40;;;0.10;;
8419;SDS011;4247;48.550;8.822;2023-04-25T11:22:37;0.17;;;0.10;;
8419;SDS011;4247;48.550;8.822;2023-04-25T11:25:05;0.10;;;0.10;;
8419;SDS011;4247;48.550;8.822;2023-04-25T11:27:33;0.00;;;0.00;;
8419;SDS011;4247;48.550;8.822;2023-04-25T11:30:09;0.00;;;0.00;;
8419;SDS011;4247;48.550;8.822;2023-04-25T11:32:38;0.10;;;0.10;;
8419;SDS011;4247;48.550;8.822;2023-04-25T11:35:06;0.00;;;0.00;;
8419;SDS011;4247;48.550;8.822;2023-04-25T11:37:33;0.00;;;0.00;;
8419;SDS011;4247;48.550;8.822;2023-04-25T11:40:00;0.10;;;0.10;;
8419;SDS011;4247;48.550;8.822;2023-04-25T11:42:27;1.57;;;0.83;;
8419;SDS011;4247;48.550;8.822;2023-04-25T11:44:53;0.30;;;0.20;;
8419;SDS011;4247;48.550;8.822;2023-04-25T11:47:20;0.10;;;0.10;;
8419;SDS011;4247;48.550;8.822;2023-04-25T11:49:57;0.50;;;0.07;;
8419;SDS011;4247;48.550;8.822;2023-04-25T11:52:24;0.10;;;0.10;;
8419;SDS011;4247;48.550;8.822;2023-04-25T11:54:51;0.20;;;0.20;;
8419;SDS011;4247;48.550;8.822;2023-04-25T11:57:18;0.00;;;0.00;;
8419;SDS011;4247;48.550;8.822;2023-04-25T11:59:45;0.30;;;0.30;;
8419;SDS011;4247;48.550;8.822;2023-04-25T12:02:23;0.30;;;0.30;;
8419;SDS011;4247;48.550;8.822;2023-04-25T12:04:51;0.60;;;0.30;;
8419;SDS011;4247;48.550;8.822;2023-04-25T12:07:19;0.50;;;0.10;;
8419;SDS011;4247;48.550;8.822;2023-04-25T12:09:51;0.17;;;0.10;;
8419;SDS011;4247;48.550;8.822;2023-04-25T12:12:18;0.10;;;0.10;;
8419;SDS011;4247;48.550;8.822;2023-04-25T12:14:46;1.03;;;0.10;;
8419;SDS011;4247;48.550;8.822;2023-04-25T12:17:13;0.20;;;0.20;;
8419;SDS011;4247;48.550;8.822;2023-04-25T12:19:40;0.27;;;0.20;;
8419;SDS011;4247;48.550;8.822;2023-04-25T12:22:20;0.23;;;0.23;;
8419;SDS011;4247;48.550;8.822;2023-04-25T12:24:47;2.10;;;0.50;;
8419;SDS011;4247;48.550;8.822;2023-04-25T12:27:14;0.50;;;0.40;;
8419;SDS011;4247;48.550;8.822;2023-04-25T12:29:49;0.60;;;0.60;;
8419;SDS011;4247;48.550;8.822;2023-04-25T12:32:17;0.40;;;0.40;;
8419;SDS011;4247;48.550;8.822;2023-04-25T12:34:44;0.50;;;0.50;;
8419;SDS011;4247;48.550;8.822;2023-04-25T12:37:11;0.50;;;0.50;;
8419;SDS011;4247;48.550;8.822;2023-04-25T12:39:39;1.47;;;0.50;;
8419;SDS011;4247;48.550;8.822;2023-04-25T12:42:06;2.03;;;1.60;;
8419;SDS011;4247;48.550;8.822;2023-04-25T12:44:36;1.10;;;0.73;;
8419;SDS011;4247;48.550;8.822;2023-04-25T12:47:03;0.53;;;0.53;;
8419;SDS011;4247;48.550;8.822;2023-04-25T12:49:30;1.77;;;0.60;;
8419;SDS011;4247;48.550;8.822;2023-04-25T12:51:57;1.10;;;0.93;;
8419;SDS011;4247;48.550;8.822;2023-04-25T12:54:24;1.10;;;1.00;;
8419;SDS011;4247;48.550;8.822;2023-04-25T12:56:52;1.00;;;0.60;;
8419;SDS011;4247;48.550;8.822;2023-04-25T12:59:19;0.50;;;0.50;;
8419;SDS011;4247;48.550;8.822;2023-04-25T13:01:46;0.60;;;0.60;;
8419;SDS011;4247;48.550;8.822;2023-04-25T13:04:13;0.80;;;0.80;;
8419;SDS011;4247;48.550;8.822;2023-04-25T13:06:40;0.70;;;0.70;;
8419;SDS011;4247;48.550;8.822;2023-04-25T13:09:06;0.57;;;0.57;;
8419;SDS011;4247;48.550;8.822;2023-04-25T13:11:33;0.80;;;0.63;;
8419;SDS011;4247;48.550;8.822;2023-04-25T13:14:01;1.13;;;0.60;;
8419;SDS011;4247;48.550;8.822;2023-04-25T13:16:28;0.60;;;0.60;;
8419;SDS011;4247;48.550;8.822;2023-04-25T13:18:55;0.50;;;0.50;;
8419;SDS011;4247;48.550;8.822;2023-04-25T13:21:22;0.77;;;0.60;;
8419;SDS011;4247;48.550;8.822;2023-04-25T13:23:48;0.93;;;0.60;;
8419;SDS011;4247;48.550;8.822;2023-04-25T13:26:15;1.90;;;0.50;;
8419;SDS011;4247;48.550;8.822;2023-04-25T13:28:42;3.20;;;0.70;;
8419;SDS011;4247;48.550;8.822;2023-04-25T13:31:10;0.60;;;0.60;;
8419;SDS011;4247;48.550;8.822;2023-04-25T13:33:36;0.40;;;0.40;;
8419;SDS011;4247;48.550;8.822;2023-04-25T13:36:03;1.37;;;0.50;;
8419;SDS011;4247;48.550;8.822;2023-04-25T13:38:30;0.37;;;0.37;;
8419;SDS011;4247;48.550;8.822;2023-04-25T13:40:57;0.40;;;0.40;;
8419;SDS011;4247;48.550;8.822;2023-04-25T13:43:23;0.53;;;0.53;;
8419;SDS011;4247;48.550;8.822;2023-04-25T13:45:50;0.87;;;0.60;;
8419;SDS011;4247;48.550;8.822;2023-04-25T13:48:18;0.60;;;0.60;;
8419;SDS011;4247;48.550;8.822;2023-04-25T13:50:45;1.10;;;1.00;;
8419;SDS011;4247;48.550;8.822;2023-04-25T13:53:12;3.90;;;1.80;;
8419;SDS011;4247;48.550;8.822;2023-04-25T13:55:39;1.33;;;1.23;;
8419;SDS011;4247;48.550;8.822;2023-04-25T13:58:06;1.60;;;1.13;;
8419;SDS011;4247;48.550;8.822;2023-04-25T14:00:35;4.40;;;1.27;;
8419;SDS011;4247;48.550;8.822;2023-04-25T14:03:03;2.07;;;1.87;;
8419;SDS011;4247;48.550;8.822;2023-04-25T14:05:33;2.00;;;1.80;;
8419;SDS011;4247;48.550;8.822;2023-04-25T14:08:03;1.53;;;1.43;;
8419;SDS011;4247;48.550;8.822;2023-04-25T14:10:31;1.30;;;1.20;;
8419;SDS011;4247;48.550;8.822;2023-04-25T14:12:58;0.90;;;0.90;;
8419;SDS011;4247;48.550;8.822;2023-04-25T14:15:25;1.73;;;1.23;;
8419;SDS011;4247;48.550;8.822;2023-04-25T14:17:52;2.10;;;2.00;;
8419;SDS011;4247;48.550;8.822;2023-04-25T14:20:19;1.40;;;1.30;;
8419;SDS011;4247;48.550;8.822;2023-04-25T14:22:47;2.20;;;1.10;;
8419;SDS011;4247;48.550;8.822;2023-04-25T14:25:14;1.30;;;1.20;;
8419;SDS011;4247;48.550;8.822;2023-04-25T14:27:41;1.27;;;1.17;;
8419;SDS011;4247;48.550;8.822;2023-04-25T14:30:09;1.00;;;0.90;;
8419;SDS011;4247;48.550;8.822;2023-04-25T14:32:36;1.00;;;1.00;;
8419;SDS011;4247;48.550;8.822;2023-04-25T14:35:04;1.60;;;1.23;;
8419;SDS011;4247;48.550;8.822;2023-04-25T14:37:32;1.43;;;1.33;;
8419;SDS011;4247;48.550;8.822;2023-04-25T14:40:00;2.07;;;1.20;;
8419;SDS011;4247;48.550;8.822;2023-04-25T14:42:28;1.30;;;1.17;;
8419;SDS011;4247;48.550;8.822;2023-04-25T14:44:55;1.10;;;1.00;;
8419;SDS011;4247;48.550;8.822;2023-04-25T14:47:21;0.80;;;0.80;;
8419;SDS011;4247;48.550;8.822;2023-04-25T14:49:48;1.20;;;1.10;;
8419;SDS011;4247;48.550;8.822;2023-04-25T14:57:13;0.90;;;0.80;;
8419;SDS011;4247;48.550;8.822;2023-04-25T14:59:40;1.00;;;1.00;;
8419;SDS011;4247;48.550;8.822;2023-04-25T15:02:07;1.07;;;0.93;;
8419;SDS011;4247;48.550;8.822;2023-04-25T15:04:33;0.80;;;0.80;;
8419;SDS011;4247;48.550;8.822;2023-04-25T15:07:00;2.07;;;1.00;;
8419;SDS011;4247;48.550;8.822;2023-04-25T15:09:27;5.13;;;2.07;;
8419;SDS011;4247;48.550;8.822;2023-04-25T15:11:54;2.83;;;0.80;;
8419;SDS011;4247;48.550;8.822;2023-04-25T15:14:22;1.40;;;1.03;;
8419;SDS011;4247;48.550;8.822;2023-04-25T15:16:49;0.53;;;0.53;;
8419;SDS011;4247;48.550;8.822;2023-04-25T15:19:16;0.97;;;0.50;;
8419;SDS011;4247;48.550;8.822;2023-04-25T15:21:43;0.37;;;0.37;;
8419;SDS011;4247;48.550;8.822;2023-04-25T15:24:10;0.80;;;0.40;;
8419;SDS011;4247;48.550;8.822;2023-04-25T15:26:37;0.60;;;0.60;;